sensor_id;sensor_type;location;lat;lon;timestamp;P1;durP1;ratioP1;P2;durP2;ratioP2
44722;SDS011;30451;48.638;10.624;2023-02-01T00:01:48;5.18;;;1.90;;
44722;SDS011;30451;48.638;10.624;2023-02-01T00:04:14;3.90;;;1.88;;
44722;SDS011;30451;48.638;10.624;2023-02-01T00:06:40;4.60;;;1.77;;
44722;SDS011;30451;48.638;10.624;2023-02-01T00:09:05;3.22;;;1.75;;
44722;SDS011;30451;48.638;10.624;2023-02-01T00:11:31;3.72;;;1.67;;
44722;SDS011;30451;48.638;10.624;2023-02-01T00:13:57;3.58;;;1.67;;
44722;SDS011;30451;48.638;10.624;2023-02-01T00:16:24;3.30;;;1.65;;
44722;SDS011;30451;48.638;10.624;2023-02-01T00:18:52;3.83;;;1.58;;
44722;SDS011;30451;48.638;10.624;2023-02-01T00:21:21;3.88;;;1.65;;
44722;SDS011;30451;48.638;10.624;2023-02-01T00:23:47;3.13;;;1.50;;
44722;SDS011;30451;48.638;10.624;2023-02-01T00:26:14;4.57;;;1.83;;
44722;SDS011;30451;48.638;10.624;2023-02-01T00:28:47;3.30;;;1.45;;
44722;SDS011;30451;48.638;10.624;2023-02-01T00:31:12;4.70;;;1.70;;
44722;SDS011;30451;48.638;10.624;2023-02-01T00:33:38;4.20;;;1.70;;
44722;SDS011;30451;48.638;10.624;2023-02-01T00:36:04;2.92;;;1.70;;
44722;SDS011;30451;48.638;10.624;2023-02-01T00:38:32;3.63;;;1.70;;
44722;SDS011;30451;48.638;10.624;2023-02-01T00:41:06;2.95;;;1.40;;
44722;SDS011;30451;48.638;10.624;2023-02-01T00:43:36;3.35;;;1.52;;
44722;SDS011;30451;48.638;10.624;2023-02-01T00:46:02;3.42;;;1.60;;
44722;SDS011;30451;48.638;10.624;2023-02-01T00:48:28;3.13;;;1.40;;
44722;SDS011;30451;48.638;10.624;2023-02-01T00:50:54;3.33;;;1.38;;
44722;SDS011;30451;48.638;10.624;2023-02-01T00:53:27;3.28;;;1.55;;
44722;SDS011;30451;48.638;10.624;2023-02-01T00:55:53;3.45;;;1.70;;
44722;SDS011;30451;48.638;10.624;2023-02-01T00:58:19;3.05;;;1.30;;
44722;SDS011;30451;48.638;10.624;2023-02-01T01:00:44;3.33;;;1.50;;
44722;SDS011;30451;48.638;10.624;2023-02-01T01:03:11;3.53;;;1.38;;
44722;SDS011;30451;48.638;10.624;2023-02-01T01:05:44;3.25;;;1.40;;
44722;SDS011;30451;48.638;10.624;2023-02-01T01:08:13;2.85;;;1.33;;
44722;SDS011;30451;48.638;10.624;2023-02-01T01:10:40;4.32;;;1.60;;
44722;SDS011;30451;48.638;10.624;2023-02-01T01:13:06;3.70;;;1.65;;
44722;SDS011;30451;48.638;10.624;2023-02-01T01:15:35;2.95;;;1.45;;
44722;SDS011;30451;48.638;10.624;2023-02-01T01:18:02;3.53;;;1.67;;
44722;SDS011;30451;48.638;10.624;2023-02-01T01:20:28;3.28;;;1.55;;
44722;SDS011;30451;48.638;10.624;2023-02-01T01:22:54;3.20;;;1.65;;
44722;SDS011;30451;48.638;10.624;2023-02-01T01:25:19;2.55;;;1.27;;
44722;SDS011;30451;48.638;10.624;2023-02-01T01:27:46;2.55;;;1.23;;
44722;SDS011;30451;48.638;10.624;2023-02-01T01:30:11;3.65;;;1.50;;
44722;SDS011;30451;48.638;10.624;2023-02-01T01:32:37;2.63;;;1.40;;
44722;SDS011;30451;48.638;10.624;2023-02-01T01:35:03;2.45;;;1.40;;
44722;SDS011;30451;48.638;10.624;2023-02-01T01:37:28;3.38;;;1.50;;
44722;SDS011;30451;48.638;10.624;2023-02-01T01:39:54;2.92;;;1.30;;
44722;SDS011;30451;48.638;10.624;2023-02-01T01:42:20;2.72;;;1.30;;
44722;SDS011;30451;48.638;10.624;2023-02-01T01:45:03;2.85;;;1.30;;
44722;SDS011;30451;48.638;10.624;2023-02-01T01:47:35;2.88;;;1.30;;
44722;SDS011;30451;48.638;10.624;2023-02-01T01:50:05;2.67;;;1.30;;
44722;SDS011;30451;48.638;10.624;2023-02-01T01:52:35;3.25;;;1.40;;
44722;SDS011;30451;48.638;10.624;2023-02-01T01:55:03;2.72;;;1.38;;
44722;SDS011;30451;48.638;10.624;2023-02-01T01:57:32;2.83;;;1.23;;
44722;SDS011;30451;48.638;10.624;2023-02-01T02:00:09;2.45;;;1.20;;
44722;SDS011;30451;48.638;10.624;2023-02-01T02:02:40;2.33;;;1.20;;
44722;SDS011;30451;48.638;10.624;2023-02-01T02:05:07;2.60;;;1.10;;
44722;SDS011;30451;48.638;10.624;2023-02-01T02:07:35;2.55;;;1.27;;
44722;SDS011;30451;48.638;10.624;2023-02-01T02:10:05;2.97;;;1.50;;
44722;SDS011;30451;48.638;10.624;2023-02-01T02:12:32;2.25;;;1.20;;
44722;SDS011;30451;48.638;10.624;2023-02-01T02:14:58;3.30;;;1.55;;
44722;SDS011;30451;48.638;10.624;2023-02-01T02:34:14;2.05;;;1.10;;
44722;SDS011;30451;48.638;10.624;2023-02-01T02:42:27;2.45;;;1.10;;
44722;SDS011;30451;48.638;10.624;2023-02-01T02:46:01;2.10;;;1.10;;
44722;SDS011;30451;48.638;10.624;2023-02-01T02:48:38;2.17;;;1.02;;
44722;SDS011;30451;48.638;10.624;2023-02-01T02:54:31;2.10;;;1.00;;
44722;SDS011;30451;48.638;10.624;2023-02-01T02:57:32;1.90;;;1.05;;
44722;SDS011;30451;48.638;10.624;2023-02-01T03:00:21;2.67;;;1.20;;
44722;SDS011;30451;48.638;10.624;2023-02-01T03:03:10;2.58;;;1.20;;
44722;SDS011;30451;48.638;10.624;2023-02-01T03:05:54;2.97;;;1.10;;
44722;SDS011;30451;48.638;10.624;2023-02-01T03:08:25;1.95;;;1.17;;
44722;SDS011;30451;48.638;10.624;2023-02-01T03:13:51;1.95;;;1.10;;
44722;SDS011;30451;48.638;10.624;2023-02-01T03:18:52;2.20;;;1.10;;
44722;SDS011;30451;48.638;10.624;2023-02-01T03:24:41;2.22;;;1.00;;
44722;SDS011;30451;48.638;10.624;2023-02-01T03:30:14;2.15;;;1.00;;
44722;SDS011;30451;48.638;10.624;2023-02-01T03:32:51;1.80;;;1.00;;
44722;SDS011;30451;48.638;10.624;2023-02-01T03:40:41;2.58;;;1.33;;
44722;SDS011;30451;48.638;10.624;2023-02-01T03:43:10;2.53;;;1.20;;
44722;SDS011;30451;48.638;10.624;2023-02-01T03:45:43;2.25;;;1.05;;
44722;SDS011;30451;48.638;10.624;2023-02-01T03:48:11;1.75;;;1.00;;
44722;SDS011;30451;48.638;10.624;2023-02-01T03:50:40;2.22;;;1.00;;
44722;SDS011;30451;48.638;10.624;2023-02-01T03:53:12;2.00;;;1.10;;
44722;SDS011;30451;48.638;10.624;2023-02-01T03:55:41;1.88;;;0.90;;
44722;SDS011;30451;48.638;10.624;2023-02-01T03:58:09;2.92;;;1.00;;
44722;SDS011;30451;48.638;10.624;2023-02-01T04:00:38;1.98;;;1.20;;
44722;SDS011;30451;48.638;10.624;2023-02-01T04:03:04;2.58;;;1.17;;
44722;SDS011;30451;48.638;10.624;2023-02-01T04:05:32;1.83;;;1.05;;
44722;SDS011;30451;48.638;10.624;2023-02-01T04:07:58;2.10;;;1.05;;
44722;SDS011;30451;48.638;10.624;2023-02-01T04:10:23;2.10;;;1.13;;
44722;SDS011;30451;48.638;10.624;2023-02-01T04:12:49;1.65;;;1.02;;
44722;SDS011;30451;48.638;10.624;2023-02-01T04:15:15;2.10;;;1.15;;
44722;SDS011;30451;48.638;10.624;2023-02-01T04:17:40;2.22;;;1.20;;
44722;SDS011;30451;48.638;10.624;2023-02-01T04:20:06;2.22;;;0.90;;
44722;SDS011;30451;48.638;10.624;2023-02-01T04:22:34;2.00;;;0.98;;
44722;SDS011;30451;48.638;10.624;2023-02-01T04:24:59;1.85;;;1.00;;
44722;SDS011;30451;48.638;10.624;2023-02-01T04:27:25;2.15;;;1.30;;
44722;SDS011;30451;48.638;10.624;2023-02-01T04:29:52;1.83;;;1.00;;
44722;SDS011;30451;48.638;10.624;2023-02-01T04:32:18;1.63;;;1.00;;
44722;SDS011;30451;48.638;10.624;2023-02-01T04:34:44;1.50;;;0.90;;
44722;SDS011;30451;48.638;10.624;2023-02-01T04:37:10;2.22;;;1.10;;
44722;SDS011;30451;48.638;10.624;2023-02-01T04:39:36;1.45;;;0.77;;
44722;SDS011;30451;48.638;10.624;2023-02-01T04:42:02;1.05;;;0.73;;
44722;SDS011;30451;48.638;10.624;2023-02-01T04:44:28;1.52;;;0.80;;
44722;SDS011;30451;48.638;10.624;2023-02-01T04:46:53;1.75;;;0.90;;
44722;SDS011;30451;48.638;10.624;2023-02-01T04:49:19;2.08;;;1.00;;
44722;SDS011;30451;48.638;10.624;2023-02-01T04:51:46;0.95;;;0.77;;
44722;SDS011;30451;48.638;10.624;2023-02-01T04:54:12;0.95;;;0.70;;
44722;SDS011;30451;48.638;10.624;2023-02-01T04:56:37;1.48;;;0.80;;
44722;SDS011;30451;48.638;10.624;2023-02-01T04:59:03;2.30;;;1.00;;
44722;SDS011;30451;48.638;10.624;2023-02-01T05:01:29;1.73;;;0.75;;
44722;SDS011;30451;48.638;10.624;2023-02-01T05:03:55;1.58;;;0.90;;
44722;SDS011;30451;48.638;10.624;2023-02-01T05:06:21;1.13;;;0.80;;
44722;SDS011;30451;48.638;10.624;2023-02-01T05:08:47;2.45;;;0.85;;
44722;SDS011;30451;48.638;10.624;2023-02-01T05:11:13;1.42;;;0.80;;
44722;SDS011;30451;48.638;10.624;2023-02-01T05:14:17;1.35;;;0.80;;
44722;SDS011;30451;48.638;10.624;2023-02-01T05:16:43;1.85;;;0.95;;
44722;SDS011;30451;48.638;10.624;2023-02-01T05:19:08;1.42;;;0.80;;
44722;SDS011;30451;48.638;10.624;2023-02-01T05:21:34;2.20;;;0.95;;
44722;SDS011;30451;48.638;10.624;2023-02-01T05:23:59;1.00;;;0.70;;
44722;SDS011;30451;48.638;10.624;2023-02-01T05:26:34;1.17;;;0.80;;
44722;SDS011;30451;48.638;10.624;2023-02-01T05:29:00;1.63;;;0.88;;
44722;SDS011;30451;48.638;10.624;2023-02-01T05:31:26;1.40;;;0.70;;
44722;SDS011;30451;48.638;10.624;2023-02-01T05:33:52;1.20;;;0.80;;
44722;SDS011;30451;48.638;10.624;2023-02-01T05:36:17;1.23;;;0.70;;
44722;SDS011;30451;48.638;10.624;2023-02-01T05:38:43;1.23;;;0.82;;
44722;SDS011;30451;48.638;10.624;2023-02-01T05:41:09;1.13;;;0.73;;
44722;SDS011;30451;48.638;10.624;2023-02-01T05:43:34;1.42;;;0.82;;
44722;SDS011;30451;48.638;10.624;2023-02-01T05:46:00;1.45;;;0.80;;
44722;SDS011;30451;48.638;10.624;2023-02-01T05:48:26;1.52;;;0.80;;
44722;SDS011;30451;48.638;10.624;2023-02-01T05:50:51;0.85;;;0.65;;
44722;SDS011;30451;48.638;10.624;2023-02-01T05:53:17;1.15;;;0.80;;
44722;SDS011;30451;48.638;10.624;2023-02-01T05:55:43;1.20;;;0.77;;
44722;SDS011;30451;48.638;10.624;2023-02-01T05:58:08;1.23;;;0.80;;
44722;SDS011;30451;48.638;10.624;2023-02-01T06:00:34;1.27;;;0.70;;
44722;SDS011;30451;48.638;10.624;2023-02-01T06:02:59;1.70;;;0.90;;
44722;SDS011;30451;48.638;10.624;2023-02-01T06:05:26;1.27;;;0.77;;
44722;SDS011;30451;48.638;10.624;2023-02-01T06:07:52;1.50;;;0.98;;
44722;SDS011;30451;48.638;10.624;2023-02-01T06:10:17;0.95;;;0.70;;
44722;SDS011;30451;48.638;10.624;2023-02-01T06:12:44;1.98;;;0.80;;
44722;SDS011;30451;48.638;10.624;2023-02-01T06:15:10;1.38;;;0.80;;
44722;SDS011;30451;48.638;10.624;2023-02-01T06:17:37;1.42;;;0.80;;
44722;SDS011;30451;48.638;10.624;2023-02-01T06:20:03;0.98;;;0.73;;
44722;SDS011;30451;48.638;10.624;2023-02-01T06:22:31;3.45;;;1.00;;
44722;SDS011;30451;48.638;10.624;2023-02-01T06:24:57;2.20;;;0.80;;
44722;SDS011;30451;48.638;10.624;2023-02-01T06:27:23;1.02;;;0.75;;
44722;SDS011;30451;48.638;10.624;2023-02-01T06:29:49;1.42;;;0.80;;
44722;SDS011;30451;48.638;10.624;2023-02-01T06:32:15;1.42;;;0.70;;
44722;SDS011;30451;48.638;10.624;2023-02-01T06:34:42;2.30;;;0.88;;
44722;SDS011;30451;48.638;10.624;2023-02-01T06:37:08;1.40;;;0.73;;
44722;SDS011;30451;48.638;10.624;2023-02-01T06:39:35;1.80;;;0.80;;
44722;SDS011;30451;48.638;10.624;2023-02-01T06:42:01;0.95;;;0.70;;
44722;SDS011;30451;48.638;10.624;2023-02-01T06:44:27;1.45;;;0.80;;
44722;SDS011;30451;48.638;10.624;2023-02-01T06:46:53;2.22;;;0.88;;
44722;SDS011;30451;48.638;10.624;2023-02-01T06:49:19;1.77;;;0.85;;
44722;SDS011;30451;48.638;10.624;2023-02-01T06:51:45;1.90;;;0.90;;
44722;SDS011;30451;48.638;10.624;2023-02-01T06:54:11;1.98;;;1.02;;
44722;SDS011;30451;48.638;10.624;2023-02-01T06:56:36;1.63;;;0.75;;
44722;SDS011;30451;48.638;10.624;2023-02-01T06:59:05;1.90;;;0.80;;
44722;SDS011;30451;48.638;10.624;2023-02-01T07:01:32;1.70;;;0.80;;
44722;SDS011;30451;48.638;10.624;2023-02-01T07:03:58;2.40;;;0.93;;
44722;SDS011;30451;48.638;10.624;2023-02-01T07:06:23;1.85;;;0.90;;
44722;SDS011;30451;48.638;10.624;2023-02-01T07:08:49;2.15;;;0.90;;
44722;SDS011;30451;48.638;10.624;2023-02-01T07:11:16;3.03;;;0.90;;
44722;SDS011;30451;48.638;10.624;2023-02-01T07:13:43;1.80;;;0.80;;
44722;SDS011;30451;48.638;10.624;2023-02-01T07:16:10;1.65;;;0.80;;
44722;SDS011;30451;48.638;10.624;2023-02-01T07:18:37;1.75;;;0.88;;
44722;SDS011;30451;48.638;10.624;2023-02-01T07:21:03;2.35;;;1.10;;
44722;SDS011;30451;48.638;10.624;2023-02-01T07:23:29;2.08;;;0.88;;
44722;SDS011;30451;48.638;10.624;2023-02-01T07:25:55;1.30;;;0.80;;
44722;SDS011;30451;48.638;10.624;2023-02-01T07:28:22;1.95;;;0.82;;
44722;SDS011;30451;48.638;10.624;2023-02-01T07:30:48;2.42;;;1.00;;
44722;SDS011;30451;48.638;10.624;2023-02-01T07:33:19;1.70;;;0.80;;
44722;SDS011;30451;48.638;10.624;2023-02-01T07:35:46;1.00;;;0.70;;
44722;SDS011;30451;48.638;10.624;2023-02-01T07:38:13;1.77;;;0.90;;
44722;SDS011;30451;48.638;10.624;2023-02-01T07:40:39;1.13;;;0.73;;
44722;SDS011;30451;48.638;10.624;2023-02-01T07:43:05;1.83;;;0.73;;
44722;SDS011;30451;48.638;10.624;2023-02-01T07:45:32;1.70;;;0.80;;
44722;SDS011;30451;48.638;10.624;2023-02-01T07:47:58;3.13;;;0.70;;
44722;SDS011;30451;48.638;10.624;2023-02-01T07:50:24;1.55;;;0.80;;
44722;SDS011;30451;48.638;10.624;2023-02-01T07:52:50;1.55;;;0.80;;
44722;SDS011;30451;48.638;10.624;2023-02-01T07:55:15;1.30;;;0.90;;
44722;SDS011;30451;48.638;10.624;2023-02-01T07:57:41;1.73;;;0.90;;
44722;SDS011;30451;48.638;10.624;2023-02-01T08:00:07;2.17;;;0.80;;
44722;SDS011;30451;48.638;10.624;2023-02-01T08:02:52;2.75;;;0.90;;
44722;SDS011;30451;48.638;10.624;2023-02-01T08:05:17;1.50;;;0.70;;
44722;SDS011;30451;48.638;10.624;2023-02-01T08:07:43;1.52;;;0.90;;
44722;SDS011;30451;48.638;10.624;2023-02-01T08:10:09;1.58;;;0.70;;
44722;SDS011;30451;48.638;10.624;2023-02-01T08:12:36;2.13;;;0.90;;
44722;SDS011;30451;48.638;10.624;2023-02-01T08:15:03;1.80;;;0.80;;
44722;SDS011;30451;48.638;10.624;2023-02-01T08:17:29;1.33;;;0.75;;
44722;SDS011;30451;48.638;10.624;2023-02-01T08:19:55;1.83;;;0.70;;
44722;SDS011;30451;48.638;10.624;2023-02-01T08:22:21;1.00;;;0.65;;
44722;SDS011;30451;48.638;10.624;2023-02-01T08:24:50;1.25;;;0.75;;
44722;SDS011;30451;48.638;10.624;2023-02-01T08:29:42;1.85;;;1.00;;
44722;SDS011;30451;48.638;10.624;2023-02-01T08:32:07;1.25;;;0.80;;
44722;SDS011;30451;48.638;10.624;2023-02-01T08:34:33;1.27;;;0.90;;
44722;SDS011;30451;48.638;10.624;2023-02-01T08:36:59;1.65;;;0.82;;
44722;SDS011;30451;48.638;10.624;2023-02-01T08:39:25;1.70;;;0.80;;
44722;SDS011;30451;48.638;10.624;2023-02-01T08:41:51;1.70;;;0.80;;
44722;SDS011;30451;48.638;10.624;2023-02-01T08:44:35;2.33;;;0.90;;
44722;SDS011;30451;48.638;10.624;2023-02-01T08:47:01;1.42;;;0.70;;
44722;SDS011;30451;48.638;10.624;2023-02-01T08:49:27;1.55;;;0.80;;
44722;SDS011;30451;48.638;10.624;2023-02-01T08:51:53;1.10;;;0.70;;
44722;SDS011;30451;48.638;10.624;2023-02-01T08:54:20;2.33;;;0.80;;
44722;SDS011;30451;48.638;10.624;2023-02-01T08:56:46;1.50;;;0.77;;
44722;SDS011;30451;48.638;10.624;2023-02-01T08:59:11;2.03;;;0.80;;
44722;SDS011;30451;48.638;10.624;2023-02-01T09:01:37;1.20;;;0.70;;
44722;SDS011;30451;48.638;10.624;2023-02-01T09:04:03;1.17;;;0.75;;
44722;SDS011;30451;48.638;10.624;2023-02-01T09:06:28;1.50;;;0.80;;
44722;SDS011;30451;48.638;10.624;2023-02-01T09:08:54;0.98;;;0.68;;
44722;SDS011;30451;48.638;10.624;2023-02-01T09:11:20;1.40;;;0.70;;
44722;SDS011;30451;48.638;10.624;2023-02-01T09:13:46;1.05;;;0.70;;
44722;SDS011;30451;48.638;10.624;2023-02-01T09:16:12;1.58;;;0.80;;
44722;SDS011;30451;48.638;10.624;2023-02-01T09:18:37;0.85;;;0.70;;
44722;SDS011;30451;48.638;10.624;2023-02-01T09:21:04;2.10;;;0.90;;
44722;SDS011;30451;48.638;10.624;2023-02-01T09:23:31;1.83;;;0.70;;
44722;SDS011;30451;48.638;10.624;2023-02-01T09:26:00;2.30;;;0.80;;
44722;SDS011;30451;48.638;10.624;2023-02-01T09:28:26;1.90;;;0.90;;
44722;SDS011;30451;48.638;10.624;2023-02-01T09:30:58;1.42;;;0.73;;
44722;SDS011;30451;48.638;10.624;2023-02-01T09:33:26;2.22;;;0.90;;
44722;SDS011;30451;48.638;10.624;2023-02-01T09:35:56;1.02;;;0.75;;
44722;SDS011;30451;48.638;10.624;2023-02-01T09:38:22;1.42;;;0.70;;
44722;SDS011;30451;48.638;10.624;2023-02-01T09:40:50;0.90;;;0.63;;
44722;SDS011;30451;48.638;10.624;2023-02-01T09:48:39;1.52;;;0.82;;
44722;SDS011;30451;48.638;10.624;2023-02-01T09:51:12;2.65;;;1.05;;
44722;SDS011;30451;48.638;10.624;2023-02-01T09:53:47;1.50;;;0.68;;
44722;SDS011;30451;48.638;10.624;2023-02-01T09:56:51;1.48;;;0.75;;
44722;SDS011;30451;48.638;10.624;2023-02-01T09:59:40;1.55;;;0.77;;
44722;SDS011;30451;48.638;10.624;2023-02-01T10:02:13;1.30;;;0.82;;
44722;SDS011;30451;48.638;10.624;2023-02-01T10:04:42;1.63;;;0.80;;
44722;SDS011;30451;48.638;10.624;2023-02-01T10:07:15;1.50;;;0.80;;
44722;SDS011;30451;48.638;10.624;2023-02-01T10:09:50;1.40;;;0.80;;
44722;SDS011;30451;48.638;10.624;2023-02-01T10:15:13;1.85;;;0.90;;
44722;SDS011;30451;48.638;10.624;2023-02-01T10:20:52;2.72;;;0.77;;
44722;SDS011;30451;48.638;10.624;2023-02-01T10:28:44;1.73;;;0.70;;
44722;SDS011;30451;48.638;10.624;2023-02-01T10:31:13;1.27;;;0.70;;
44722;SDS011;30451;48.638;10.624;2023-02-01T10:33:48;1.40;;;0.70;;
44722;SDS011;30451;48.638;10.624;2023-02-01T10:38:46;1.13;;;0.70;;
44722;SDS011;30451;48.638;10.624;2023-02-01T10:43:47;1.30;;;0.70;;
44722;SDS011;30451;48.638;10.624;2023-02-01T10:46:15;1.60;;;0.77;;
44722;SDS011;30451;48.638;10.624;2023-02-01T10:48:41;1.08;;;0.68;;
44722;SDS011;30451;48.638;10.624;2023-02-01T10:53:48;1.40;;;0.80;;
44722;SDS011;30451;48.638;10.624;2023-02-01T10:56:22;1.50;;;0.80;;
44722;SDS011;30451;48.638;10.624;2023-02-01T10:58:49;1.52;;;0.77;;
44722;SDS011;30451;48.638;10.624;2023-02-01T11:01:20;1.15;;;0.70;;
44722;SDS011;30451;48.638;10.624;2023-02-01T11:03:52;1.17;;;0.70;;
44722;SDS011;30451;48.638;10.624;2023-02-01T11:08:48;1.83;;;0.80;;
44722;SDS011;30451;48.638;10.624;2023-02-01T11:11:16;1.60;;;0.80;;
44722;SDS011;30451;48.638;10.624;2023-02-01T11:13:42;1.30;;;0.70;;
44722;SDS011;30451;48.638;10.624;2023-02-01T11:16:12;0.82;;;0.60;;
44722;SDS011;30451;48.638;10.624;2023-02-01T11:18:39;1.27;;;0.73;;
44722;SDS011;30451;48.638;10.624;2023-02-01T11:21:06;1.73;;;0.80;;
44722;SDS011;30451;48.638;10.624;2023-02-01T11:23:33;1.60;;;0.70;;
44722;SDS011;30451;48.638;10.624;2023-02-01T11:26:14;1.70;;;0.90;;
44722;SDS011;30451;48.638;10.624;2023-02-01T11:29:31;1.63;;;0.77;;
44722;SDS011;30451;48.638;10.624;2023-02-01T11:31:38;1.73;;;0.90;;
44722;SDS011;30451;48.638;10.624;2023-02-01T11:34:20;1.08;;;0.65;;
44722;SDS011;30451;48.638;10.624;2023-02-01T11:36:50;1.77;;;0.90;;
44722;SDS011;30451;48.638;10.624;2023-02-01T11:39:25;1.38;;;0.80;;
44722;SDS011;30451;48.638;10.624;2023-02-01T11:44:43;0.95;;;0.70;;
44722;SDS011;30451;48.638;10.624;2023-02-01T11:49:57;1.70;;;0.85;;
44722;SDS011;30451;48.638;10.624;2023-02-01T11:58:12;1.30;;;0.70;;
44722;SDS011;30451;48.638;10.624;2023-02-01T12:24:42;1.30;;;0.73;;
44722;SDS011;30451;48.638;10.624;2023-02-01T12:27:16;1.83;;;0.80;;
44722;SDS011;30451;48.638;10.624;2023-02-01T12:32:25;1.20;;;0.70;;
44722;SDS011;30451;48.638;10.624;2023-02-01T12:41:05;2.58;;;0.80;;
44722;SDS011;30451;48.638;10.624;2023-02-01T12:43:54;1.38;;;0.80;;
44722;SDS011;30451;48.638;10.624;2023-02-01T12:46:26;1.70;;;1.00;;
44722;SDS011;30451;48.638;10.624;2023-02-01T12:49:06;1.05;;;0.80;;
44722;SDS011;30451;48.638;10.624;2023-02-01T12:51:50;2.13;;;0.82;;
44722;SDS011;30451;48.638;10.624;2023-02-01T12:54:20;2.95;;;0.95;;
44722;SDS011;30451;48.638;10.624;2023-02-01T12:57:06;1.90;;;0.90;;
44722;SDS011;30451;48.638;10.624;2023-02-01T12:59:52;1.65;;;0.88;;
44722;SDS011;30451;48.638;10.624;2023-02-01T13:02:40;1.67;;;0.80;;
44722;SDS011;30451;48.638;10.624;2023-02-01T13:05:14;1.48;;;0.80;;
44722;SDS011;30451;48.638;10.624;2023-02-01T13:07:50;1.20;;;0.70;;
44722;SDS011;30451;48.638;10.624;2023-02-01T13:13:22;2.45;;;0.60;;
44722;SDS011;30451;48.638;10.624;2023-02-01T13:16:17;1.65;;;0.82;;
44722;SDS011;30451;48.638;10.624;2023-02-01T13:19:01;1.45;;;0.70;;
44722;SDS011;30451;48.638;10.624;2023-02-01T13:21:38;1.45;;;0.82;;
44722;SDS011;30451;48.638;10.624;2023-02-01T13:24:10;1.70;;;0.80;;
44722;SDS011;30451;48.638;10.624;2023-02-01T13:26:57;1.83;;;0.80;;
44722;SDS011;30451;48.638;10.624;2023-02-01T13:29:23;1.85;;;0.70;;
44722;SDS011;30451;48.638;10.624;2023-02-01T13:34:58;2.15;;;0.80;;
44722;SDS011;30451;48.638;10.624;2023-02-01T13:43:07;1.50;;;0.85;;
44722;SDS011;30451;48.638;10.624;2023-02-01T13:45:53;3.53;;;0.90;;
44722;SDS011;30451;48.638;10.624;2023-02-01T13:49:13;2.47;;;0.93;;
44722;SDS011;30451;48.638;10.624;2023-02-01T13:51:12;2.03;;;0.90;;
44722;SDS011;30451;48.638;10.624;2023-02-01T13:53:43;2.03;;;0.93;;
44722;SDS011;30451;48.638;10.624;2023-02-01T13:58:40;3.17;;;0.90;;
44722;SDS011;30451;48.638;10.624;2023-02-01T14:06:14;2.10;;;0.90;;
44722;SDS011;30451;48.638;10.624;2023-02-01T14:11:42;1.88;;;1.10;;
44722;SDS011;30451;48.638;10.624;2023-02-01T14:16:39;2.00;;;0.95;;
44722;SDS011;30451;48.638;10.624;2023-02-01T14:19:22;1.98;;;0.90;;
44722;SDS011;30451;48.638;10.624;2023-02-01T14:21:50;1.65;;;0.85;;
44722;SDS011;30451;48.638;10.624;2023-02-01T14:24:27;3.05;;;1.20;;
44722;SDS011;30451;48.638;10.624;2023-02-01T14:26:55;2.00;;;1.00;;
44722;SDS011;30451;48.638;10.624;2023-02-01T14:42:19;2.17;;;1.10;;
44722;SDS011;30451;48.638;10.624;2023-02-01T14:47:46;2.65;;;1.00;;
44722;SDS011;30451;48.638;10.624;2023-02-01T15:00:58;1.70;;;0.90;;
44722;SDS011;30451;48.638;10.624;2023-02-01T15:06:38;2.22;;;1.00;;
44722;SDS011;30451;48.638;10.624;2023-02-01T15:09:19;2.72;;;1.00;;
44722;SDS011;30451;48.638;10.624;2023-02-01T15:11:55;2.15;;;1.00;;
44722;SDS011;30451;48.638;10.624;2023-02-01T15:16:54;2.92;;;0.95;;
44722;SDS011;30451;48.638;10.624;2023-02-01T15:19:21;2.70;;;1.17;;
44722;SDS011;30451;48.638;10.624;2023-02-01T15:21:49;2.67;;;1.35;;
44722;SDS011;30451;48.638;10.624;2023-02-01T15:24:21;1.92;;;1.13;;
44722;SDS011;30451;48.638;10.624;2023-02-01T15:26:49;2.75;;;1.30;;
44722;SDS011;30451;48.638;10.624;2023-02-01T15:29:16;2.00;;;0.90;;
44722;SDS011;30451;48.638;10.624;2023-02-01T15:31:44;2.60;;;1.00;;
44722;SDS011;30451;48.638;10.624;2023-02-01T15:34:15;2.17;;;1.05;;
44722;SDS011;30451;48.638;10.624;2023-02-01T15:36:41;2.90;;;1.20;;
44722;SDS011;30451;48.638;10.624;2023-02-01T15:41:54;2.53;;;1.10;;
44722;SDS011;30451;48.638;10.624;2023-02-01T15:44:38;3.45;;;1.20;;
44722;SDS011;30451;48.638;10.624;2023-02-01T15:47:13;3.13;;;1.40;;
44722;SDS011;30451;48.638;10.624;2023-02-01T15:49:41;2.58;;;1.10;;
44722;SDS011;30451;48.638;10.624;2023-02-01T15:52:43;2.47;;;1.20;;
44722;SDS011;30451;48.638;10.624;2023-02-01T15:55:30;2.53;;;1.10;;
44722;SDS011;30451;48.638;10.624;2023-02-01T15:57:57;1.77;;;0.90;;
44722;SDS011;30451;48.638;10.624;2023-02-01T16:00:24;2.03;;;0.90;;
44722;SDS011;30451;48.638;10.624;2023-02-01T16:02:59;1.92;;;0.90;;
44722;SDS011;30451;48.638;10.624;2023-02-01T16:08:00;1.58;;;0.90;;
44722;SDS011;30451;48.638;10.624;2023-02-01T16:10:29;2.45;;;1.00;;
44722;SDS011;30451;48.638;10.624;2023-02-01T16:12:55;1.90;;;0.98;;
44722;SDS011;30451;48.638;10.624;2023-02-01T16:15:25;1.95;;;1.02;;
44722;SDS011;30451;48.638;10.624;2023-02-01T16:17:55;2.45;;;1.00;;
44722;SDS011;30451;48.638;10.624;2023-02-01T16:20:20;2.28;;;0.90;;
44722;SDS011;30451;48.638;10.624;2023-02-01T16:22:46;2.13;;;1.08;;
44722;SDS011;30451;48.638;10.624;2023-02-01T16:25:12;2.30;;;1.00;;
44722;SDS011;30451;48.638;10.624;2023-02-01T16:27:37;2.13;;;0.80;;
44722;SDS011;30451;48.638;10.624;2023-02-01T16:30:03;2.88;;;1.10;;
44722;SDS011;30451;48.638;10.624;2023-02-01T16:32:29;2.28;;;1.20;;
44722;SDS011;30451;48.638;10.624;2023-02-01T16:34:56;1.75;;;1.00;;
44722;SDS011;30451;48.638;10.624;2023-02-01T16:37:23;2.15;;;0.73;;
44722;SDS011;30451;48.638;10.624;2023-02-01T16:39:50;1.77;;;0.90;;
44722;SDS011;30451;48.638;10.624;2023-02-01T16:42:16;1.75;;;0.90;;
44722;SDS011;30451;48.638;10.624;2023-02-01T16:44:42;0.98;;;0.63;;
44722;SDS011;30451;48.638;10.624;2023-02-01T16:47:10;1.90;;;0.80;;
44722;SDS011;30451;48.638;10.624;2023-02-01T16:49:41;2.08;;;0.90;;
44722;SDS011;30451;48.638;10.624;2023-02-01T16:52:09;2.10;;;0.90;;
44722;SDS011;30451;48.638;10.624;2023-02-01T16:54:39;1.50;;;0.88;;
44722;SDS011;30451;48.638;10.624;2023-02-01T16:57:05;2.63;;;1.02;;
44722;SDS011;30451;48.638;10.624;2023-02-01T16:59:37;1.70;;;0.98;;
44722;SDS011;30451;48.638;10.624;2023-02-01T17:02:03;2.15;;;1.02;;
44722;SDS011;30451;48.638;10.624;2023-02-01T17:04:28;1.95;;;0.90;;
44722;SDS011;30451;48.638;10.624;2023-02-01T17:06:54;2.05;;;1.00;;
44722;SDS011;30451;48.638;10.624;2023-02-01T17:09:19;2.58;;;1.00;;
44722;SDS011;30451;48.638;10.624;2023-02-01T17:11:45;2.20;;;1.13;;
44722;SDS011;30451;48.638;10.624;2023-02-01T17:14:15;1.92;;;1.02;;
44722;SDS011;30451;48.638;10.624;2023-02-01T17:16:42;2.13;;;0.90;;
44722;SDS011;30451;48.638;10.624;2023-02-01T17:19:12;2.28;;;1.00;;
44722;SDS011;30451;48.638;10.624;2023-02-01T17:21:43;2.35;;;1.02;;
44722;SDS011;30451;48.638;10.624;2023-02-01T17:24:14;1.60;;;0.90;;
44722;SDS011;30451;48.638;10.624;2023-02-01T17:26:41;1.40;;;0.80;;
44722;SDS011;30451;48.638;10.624;2023-02-01T17:29:08;1.77;;;0.93;;
44722;SDS011;30451;48.638;10.624;2023-02-01T17:31:36;1.75;;;0.90;;
44722;SDS011;30451;48.638;10.624;2023-02-01T17:34:04;1.60;;;0.90;;
44722;SDS011;30451;48.638;10.624;2023-02-01T17:36:30;1.83;;;1.00;;
44722;SDS011;30451;48.638;10.624;2023-02-01T17:38:56;1.98;;;1.10;;
44722;SDS011;30451;48.638;10.624;2023-02-01T17:41:21;1.55;;;0.80;;
44722;SDS011;30451;48.638;10.624;2023-02-01T17:43:47;1.92;;;0.90;;
44722;SDS011;30451;48.638;10.624;2023-02-01T17:46:16;2.25;;;1.00;;